sensor_id;sensor_type;location;lat;lon;timestamp;pressure;altitude;pressure_sealevel;temperature;humidity
75409;BME280;63979;55.644;37.734;2023-04-24T00:01:33;100205.63;;;10.02;60.79
75409;BME280;63979;55.644;37.734;2023-04-24T00:06:35;100200.38;;;9.87;61.95
75409;BME280;63979;55.644;37.734;2023-04-24T00:11:37;100201.69;;;9.80;57.83
75409;BME280;63979;55.644;37.734;2023-04-24T00:16:38;100147.03;;;9.43;57.99
75409;BME280;63979;55.644;37.734;2023-04-24T00:21:40;100196.38;;;9.80;56.28
75409;BME280;63979;55.644;37.734;2023-04-24T00:26:42;100205.69;;;9.73;57.88
75409;BME280;63979;55.644;37.734;2023-04-24T00:31:43;100193.13;;;9.75;55.38
75409;BME280;63979;55.644;37.734;2023-04-24T00:36:44;100188.03;;;9.70;55.78
75409;BME280;63979;55.644;37.734;2023-04-24T00:41:45;100162.38;;;9.53;56.00
75409;BME280;63979;55.644;37.734;2023-04-24T00:46:48;100201.03;;;9.76;55.85
75409;BME280;63979;55.644;37.734;2023-04-24T00:51:52;100201.22;;;9.73;56.04
75409;BME280;63979;55.644;37.734;2023-04-24T00:56:54;100202.22;;;9.70;55.78
75409;BME280;63979;55.644;37.734;2023-04-24T01:01:55;100206.00;;;9.66;56.72
75409;BME280;63979;55.644;37.734;2023-04-24T01:06:57;100161.72;;;9.34;56.57
75409;BME280;63979;55.644;37.734;2023-04-24T01:11:58;100204.75;;;9.58;56.97
75409;BME280;63979;55.644;37.734;2023-04-24T01:17:01;100207.31;;;9.59;56.73
75409;BME280;63979;55.644;37.734;2023-04-24T01:22:07;100195.59;;;9.48;57.61
75409;BME280;63979;55.644;37.734;2023-04-24T01:27:10;100189.75;;;9.41;58.01
75409;BME280;63979;55.644;37.734;2023-04-24T01:32:11;100193.69;;;9.34;58.91
75409;BME280;63979;55.644;37.734;2023-04-24T01:37:13;100196.81;;;9.26;58.97
75409;BME280;63979;55.644;37.734;2023-04-24T01:42:14;100192.34;;;9.27;60.17
75409;BME280;63979;55.644;37.734;2023-04-24T01:47:15;100132.41;;;9.04;60.29
75409;BME280;63979;55.644;37.734;2023-04-24T01:52:17;100183.50;;;9.26;59.84
75409;BME280;63979;55.644;37.734;2023-04-24T01:57:19;100144.59;;;8.92;59.72
75409;BME280;63979;55.644;37.734;2023-04-24T02:02:20;100188.25;;;9.05;61.06
75409;BME280;63979;55.644;37.734;2023-04-24T02:07:22;100185.13;;;8.97;60.35
75409;BME280;63979;55.644;37.734;2023-04-24T02:12:23;100197.00;;;9.07;62.29
75409;BME280;63979;55.644;37.734;2023-04-24T02:17:24;100192.81;;;9.03;63.06
75409;BME280;63979;55.644;37.734;2023-04-24T02:22:25;100178.00;;;8.98;63.15
75409;BME280;63979;55.644;37.734;2023-04-24T02:27:26;100191.31;;;9.14;62.18
75409;BME280;63979;55.644;37.734;2023-04-24T02:32:28;100193.63;;;9.20;62.32
75409;BME280;63979;55.644;37.734;2023-04-24T02:37:29;100192.00;;;9.17;62.62
75409;BME280;63979;55.644;37.734;2023-04-24T02:42:30;100199.56;;;9.25;62.56
75409;BME280;63979;55.644;37.734;2023-04-24T02:47:31;100202.72;;;9.31;62.11
75409;BME280;63979;55.644;37.734;2023-04-24T02:52:32;100207.63;;;9.39;61.05
75409;BME280;63979;55.644;37.734;2023-04-24T02:57:34;100225.66;;;9.50;60.31
75409;BME280;63979;55.644;37.734;2023-04-24T03:02:35;100221.59;;;9.58;60.62
75409;BME280;63979;55.644;37.734;2023-04-24T03:07:36;100187.50;;;9.49;59.70
75409;BME280;63979;55.644;37.734;2023-04-24T03:12:37;100224.38;;;9.87;60.29
75409;BME280;63979;55.644;37.734;2023-04-24T03:17:38;100227.75;;;10.05;58.64
75409;BME280;63979;55.644;37.734;2023-04-24T03:22:40;100232.00;;;10.23;56.68
75409;BME280;63979;55.644;37.734;2023-04-24T03:27:41;100186.75;;;10.21;55.02
75409;BME280;63979;55.644;37.734;2023-04-24T03:32:43;100238.03;;;10.69;53.75
75409;BME280;63979;55.644;37.734;2023-04-24T03:37:44;100222.59;;;10.88;52.93
75409;BME280;63979;55.644;37.734;2023-04-24T03:42:45;100238.94;;;11.25;51.74
75409;BME280;63979;55.644;37.734;2023-04-24T03:47:48;100231.50;;;11.57;50.08
75409;BME280;63979;55.644;37.734;2023-04-24T03:52:50;100231.09;;;11.90;49.84
75409;BME280;63979;55.644;37.734;2023-04-24T03:57:52;100227.63;;;12.15;49.60
75409;BME280;63979;55.644;37.734;2023-04-24T04:02:53;100225.03;;;12.39;47.97
75409;BME280;63979;55.644;37.734;2023-04-24T04:07:54;100245.06;;;12.71;48.49
75409;BME280;63979;55.644;37.734;2023-04-24T04:12:56;100250.59;;;13.06;46.51
75409;BME280;63979;55.644;37.734;2023-04-24T04:17:57;100198.81;;;13.06;45.17
75409;BME280;63979;55.644;37.734;2023-04-24T04:22:58;100255.91;;;13.68;42.79
75409;BME280;63979;55.644;37.734;2023-04-24T04:27:59;100243.97;;;13.96;43.21
75409;BME280;63979;55.644;37.734;2023-04-24T04:33:00;100243.56;;;14.25;41.56
75409;BME280;63979;55.644;37.734;2023-04-24T04:38:02;100205.50;;;14.42;41.90
75409;BME280;63979;55.644;37.734;2023-04-24T04:43:02;100259.78;;;15.14;39.49
75409;BME280;63979;55.644;37.734;2023-04-24T04:48:04;100256.25;;;15.79;37.28
75409;BME280;63979;55.644;37.734;2023-04-24T04:53:08;100203.78;;;16.57;35.65
75409;BME280;63979;55.644;37.734;2023-04-24T04:58:09;100269.19;;;17.41;32.86
75409;BME280;63979;55.644;37.734;2023-04-24T05:03:09;100262.47;;;17.95;31.31
75409;BME280;63979;55.644;37.734;2023-04-24T05:08:10;100249.38;;;18.00;31.17
75409;BME280;63979;55.644;37.734;2023-04-24T05:13:11;100224.63;;;18.33;29.33
75409;BME280;63979;55.644;37.734;2023-04-24T05:18:13;100269.63;;;19.28;29.29
75409;BME280;63979;55.644;37.734;2023-04-24T05:23:13;100266.22;;;19.81;27.41
75409;BME280;63979;55.644;37.734;2023-04-24T05:28:14;100268.25;;;21.94;24.22
75409;BME280;63979;55.644;37.734;2023-04-24T05:33:15;100278.94;;;23.65;21.82
75409;BME280;63979;55.644;37.734;2023-04-24T05:38:16;100276.19;;;25.32;21.93
75409;BME280;63979;55.644;37.734;2023-04-24T05:43:19;100263.25;;;26.06;20.47
75409;BME280;63979;55.644;37.734;2023-04-24T05:48:20;100264.38;;;26.82;18.77
75409;BME280;63979;55.644;37.734;2023-04-24T05:53:23;100239.66;;;27.03;18.20
75409;BME280;63979;55.644;37.734;2023-04-24T05:58:24;100273.44;;;28.00;17.75
75409;BME280;63979;55.644;37.734;2023-04-24T06:03:24;100263.53;;;28.05;17.00
75409;BME280;63979;55.644;37.734;2023-04-24T06:08:25;100278.78;;;29.27;16.45
75409;BME280;63979;55.644;37.734;2023-04-24T06:13:26;100268.69;;;28.94;16.95
75409;BME280;63979;55.644;37.734;2023-04-24T06:18:27;100277.53;;;30.57;15.28
75409;BME280;63979;55.644;37.734;2023-04-24T06:23:28;100275.34;;;30.65;15.17
75409;BME280;63979;55.644;37.734;2023-04-24T06:28:30;100249.78;;;31.75;14.00
75409;BME280;63979;55.644;37.734;2023-04-24T06:33:30;100287.34;;;30.46;14.82
75409;BME280;63979;55.644;37.734;2023-04-24T06:38:31;100280.41;;;31.12;14.73
75409;BME280;63979;55.644;37.734;2023-04-24T06:43:32;100276.69;;;30.25;14.93
75409;BME280;63979;55.644;37.734;2023-04-24T06:48:33;100249.34;;;32.19;13.76
75409;BME280;63979;55.644;37.734;2023-04-24T06:53:34;100289.84;;;32.44;13.66
75409;BME280;63979;55.644;37.734;2023-04-24T06:58:35;100285.59;;;31.45;13.79
75409;BME280;63979;55.644;37.734;2023-04-24T07:03:36;100293.81;;;31.70;13.42
75409;BME280;63979;55.644;37.734;2023-04-24T07:08:37;100278.50;;;33.10;13.05
75409;BME280;63979;55.644;37.734;2023-04-24T07:13:38;100288.09;;;33.19;12.41
75409;BME280;63979;55.644;37.734;2023-04-24T07:18:42;100302.81;;;32.55;12.28
75409;BME280;63979;55.644;37.734;2023-04-24T07:23:43;100264.00;;;31.60;12.59
75409;BME280;63979;55.644;37.734;2023-04-24T07:28:44;100271.72;;;31.70;12.55
75409;BME280;63979;55.644;37.734;2023-04-24T07:33:45;100293.44;;;31.66;12.22
75409;BME280;63979;55.644;37.734;2023-04-24T07:38:47;100217.22;;;32.37;11.44
75409;BME280;63979;55.644;37.734;2023-04-24T07:43:48;100288.69;;;31.37;11.90
75409;BME280;63979;55.644;37.734;2023-04-24T07:48:49;100285.59;;;33.06;11.41
75409;BME280;63979;55.644;37.734;2023-04-24T07:53:50;100275.06;;;34.07;10.33
75409;BME280;63979;55.644;37.734;2023-04-24T07:58:51;100272.81;;;34.83;10.11
75409;BME280;63979;55.644;37.734;2023-04-24T08:03:52;100279.69;;;34.18;10.22
75409;BME280;63979;55.644;37.734;2023-04-24T08:08:53;100275.56;;;31.50;10.96
75409;BME280;63979;55.644;37.734;2023-04-24T08:13:53;100236.19;;;29.56;12.73
75409;BME280;63979;55.644;37.734;2023-04-24T08:18:55;100270.56;;;30.48;11.95
75409;BME280;63979;55.644;37.734;2023-04-24T08:23:56;100258.84;;;31.45;10.98
75409;BME280;63979;55.644;37.734;2023-04-24T08:28:57;100253.84;;;32.85;10.60
75409;BME280;63979;55.644;37.734;2023-04-24T08:33:57;100259.16;;;32.34;10.47
75409;BME280;63979;55.644;37.734;2023-04-24T08:38:59;100244.16;;;32.41;10.67
75409;BME280;63979;55.644;37.734;2023-04-24T08:44:02;100245.97;;;32.17;11.15
75409;BME280;63979;55.644;37.734;2023-04-24T08:49:03;100238.78;;;33.16;10.27
75409;BME280;63979;55.644;37.734;2023-04-24T08:54:05;100241.41;;;30.08;11.59
75409;BME280;63979;55.644;37.734;2023-04-24T08:59:08;100229.63;;;31.01;11.80
75409;BME280;63979;55.644;37.734;2023-04-24T09:04:10;100220.72;;;32.55;10.51
75409;BME280;63979;55.644;37.734;2023-04-24T09:09:13;100222.66;;;29.47;12.63
75409;BME280;63979;55.644;37.734;2023-04-24T09:14:14;100224.66;;;31.94;10.91
75409;BME280;63979;55.644;37.734;2023-04-24T09:19:15;100218.66;;;33.85;9.72
75409;BME280;63979;55.644;37.734;2023-04-24T09:24:20;100219.28;;;35.64;8.18
75409;BME280;63979;55.644;37.734;2023-04-24T09:29:25;100185.50;;;32.74;9.51
75409;BME280;63979;55.644;37.734;2023-04-24T09:34:27;100198.09;;;33.40;10.12
75409;BME280;63979;55.644;37.734;2023-04-24T09:39:28;100208.53;;;34.35;9.03
75409;BME280;63979;55.644;37.734;2023-04-24T09:44:29;100205.84;;;32.92;10.39
75409;BME280;63979;55.644;37.734;2023-04-24T09:49:30;100197.28;;;38.11;7.13
75409;BME280;63979;55.644;37.734;2023-04-24T09:54:33;100193.41;;;38.78;6.66
75409;BME280;63979;55.644;37.734;2023-04-24T09:59:34;100210.41;;;36.16;8.67
75409;BME280;63979;55.644;37.734;2023-04-24T10:04:35;100195.75;;;36.58;7.88
75409;BME280;63979;55.644;37.734;2023-04-24T10:09:36;100142.91;;;35.94;8.27
75409;BME280;63979;55.644;37.734;2023-04-24T10:14:37;100162.16;;;37.85;8.44
75409;BME280;63979;55.644;37.734;2023-04-24T10:19:40;100179.66;;;40.50;6.09
75409;BME280;63979;55.644;37.734;2023-04-24T10:24:42;100191.66;;;36.07;8.25
75409;BME280;63979;55.644;37.734;2023-04-24T10:29:45;100183.06;;;34.38;8.80
75409;BME280;63979;55.644;37.734;2023-04-24T10:34:48;100159.41;;;34.69;8.49
75409;BME280;63979;55.644;37.734;2023-04-24T10:39:49;100169.31;;;39.03;7.02
75409;BME280;63979;55.644;37.734;2023-04-24T10:44:51;100180.25;;;38.84;6.28
75409;BME280;63979;55.644;37.734;2023-04-24T10:49:53;100172.16;;;35.48;8.54
75409;BME280;63979;55.644;37.734;2023-04-24T10:54:54;100163.16;;;31.87;9.93
75409;BME280;63979;55.644;37.734;2023-04-24T11:00:19;100133.22;;;31.73;10.64
75409;BME280;63979;55.644;37.734;2023-04-24T11:05:21;100156.06;;;36.04;8.06
75409;BME280;63979;55.644;37.734;2023-04-24T11:10:26;100117.22;;;40.49;6.12
75409;BME280;63979;55.644;37.734;2023-04-24T11:15:27;100142.69;;;34.14;8.77
75409;BME280;63979;55.644;37.734;2023-04-24T11:20:30;100129.88;;;35.73;7.78
75409;BME280;63979;55.644;37.734;2023-04-24T11:25:31;100124.47;;;36.47;7.58
75409;BME280;63979;55.644;37.734;2023-04-24T11:30:33;100121.16;;;38.41;6.38
75409;BME280;63979;55.644;37.734;2023-04-24T11:35:40;100129.50;;;38.56;5.81
75409;BME280;63979;55.644;37.734;2023-04-24T11:40:41;100120.84;;;38.48;6.12
75409;BME280;63979;55.644;37.734;2023-04-24T11:45:48;100108.00;;;38.47;6.29
75409;BME280;63979;55.644;37.734;2023-04-24T11:50:50;100104.59;;;36.33;7.68
75409;BME280;63979;55.644;37.734;2023-04-24T11:55:51;100044.72;;;32.73;9.28
75409;BME280;63979;55.644;37.734;2023-04-24T12:00:58;100075.78;;;30.05;11.26
75409;BME280;63979;55.644;37.734;2023-04-24T12:06:07;100064.03;;;29.91;11.01
75409;BME280;63979;55.644;37.734;2023-04-24T12:11:08;100057.72;;;35.24;8.57
75409;BME280;63979;55.644;37.734;2023-04-24T12:16:09;100062.47;;;34.24;8.48
75409;BME280;63979;55.644;37.734;2023-04-24T12:21:18;100063.44;;;30.51;10.66
75409;BME280;63979;55.644;37.734;2023-04-24T12:26:20;100029.03;;;31.80;8.99
75409;BME280;63979;55.644;37.734;2023-04-24T12:31:22;100049.34;;;29.41;11.66
75409;BME280;63979;55.644;37.734;2023-04-24T12:36:24;100060.81;;;26.95;13.09
75409;BME280;63979;55.644;37.734;2023-04-24T12:41:30;100046.28;;;25.41;14.19
75409;BME280;63979;55.644;37.734;2023-04-24T12:46:31;100027.59;;;28.50;12.18
75409;BME280;63979;55.644;37.734;2023-04-24T12:51:32;100037.69;;;31.95;9.94
75409;BME280;63979;55.644;37.734;2023-04-24T12:56:33;100034.84;;;33.79;8.97
75409;BME280;63979;55.644;37.734;2023-04-24T13:01:34;100036.50;;;34.69;7.83
75409;BME280;63979;55.644;37.734;2023-04-24T13:06:35;100025.75;;;34.94;8.04
75409;BME280;63979;55.644;37.734;2023-04-24T13:11:37;100026.56;;;34.13;8.24
75409;BME280;63979;55.644;37.734;2023-04-24T13:16:38;100020.56;;;34.21;8.04
75409;BME280;63979;55.644;37.734;2023-04-24T13:21:39;100020.63;;;30.85;9.98
75409;BME280;63979;55.644;37.734;2023-04-24T13:26:40;100020.41;;;29.88;11.14
75409;BME280;63979;55.644;37.734;2023-04-24T13:31:41;99974.91;;;27.42;12.42
75409;BME280;63979;55.644;37.734;2023-04-24T13:36:42;99952.53;;;27.32;12.98
75409;BME280;63979;55.644;37.734;2023-04-24T13:41:44;99989.88;;;27.53;12.58
75409;BME280;63979;55.644;37.734;2023-04-24T13:46:49;100011.59;;;26.26;13.34
75409;BME280;63979;55.644;37.734;2023-04-24T13:51:52;99999.41;;;24.66;14.73
75409;BME280;63979;55.644;37.734;2023-04-24T13:56:57;99992.66;;;24.03;15.52
75409;BME280;63979;55.644;37.734;2023-04-24T14:02:01;99987.53;;;23.32;16.24
75409;BME280;63979;55.644;37.734;2023-04-24T14:07:02;99968.97;;;23.51;15.72
75409;BME280;63979;55.644;37.734;2023-04-24T14:12:03;99974.00;;;24.21;15.23
75409;BME280;63979;55.644;37.734;2023-04-24T14:17:05;99930.88;;;23.95;15.91
75409;BME280;63979;55.644;37.734;2023-04-24T14:22:06;99955.63;;;23.18;16.55
75409;BME280;63979;55.644;37.734;2023-04-24T14:27:09;99969.66;;;22.53;17.28
75409;BME280;63979;55.644;37.734;2023-04-24T14:32:10;99964.53;;;22.27;17.70
75409;BME280;63979;55.644;37.734;2023-04-24T14:37:12;99959.59;;;22.62;17.02
75409;BME280;63979;55.644;37.734;2023-04-24T14:42:13;99936.03;;;22.46;17.30
75409;BME280;63979;55.644;37.734;2023-04-24T14:47:14;99954.00;;;21.69;17.39
75409;BME280;63979;55.644;37.734;2023-04-24T14:52:18;99923.16;;;21.29;17.84
75409;BME280;63979;55.644;37.734;2023-04-24T14:57:19;99940.09;;;21.39;18.36
75409;BME280;63979;55.644;37.734;2023-04-24T15:02:20;99949.16;;;22.03;17.69
75409;BME280;63979;55.644;37.734;2023-04-24T15:07:22;99953.19;;;22.16;18.71
75409;BME280;63979;55.644;37.734;2023-04-24T15:12:23;99894.47;;;21.27;17.87
75409;BME280;63979;55.644;37.734;2023-04-24T15:17:26;99958.47;;;21.29;18.53
75409;BME280;63979;55.644;37.734;2023-04-24T15:22:27;99951.81;;;20.99;18.93
75409;BME280;63979;55.644;37.734;2023-04-24T15:27:38;99959.41;;;20.71;19.16
75409;BME280;63979;55.644;37.734;2023-04-24T15:32:39;99920.47;;;20.30;20.19
75409;BME280;63979;55.644;37.734;2023-04-24T15:37:40;99947.50;;;20.48;20.59
75409;BME280;63979;55.644;37.734;2023-04-24T15:42:42;99918.91;;;20.19;20.53
75409;BME280;63979;55.644;37.734;2023-04-24T15:47:45;99950.84;;;20.42;20.19
75409;BME280;63979;55.644;37.734;2023-04-24T15:52:49;99901.47;;;19.80;20.77
75409;BME280;63979;55.644;37.734;2023-04-24T15:57:49;99949.63;;;19.94;20.96
75409;BME280;63979;55.644;37.734;2023-04-24T16:02:50;99951.25;;;19.79;21.57
75409;BME280;63979;55.644;37.734;2023-04-24T16:07:55;99932.72;;;19.66;21.75
75409;BME280;63979;55.644;37.734;2023-04-24T16:12:56;99923.47;;;19.51;21.68
75409;BME280;63979;55.644;37.734;2023-04-24T16:17:57;99937.94;;;19.42;22.22
75409;BME280;63979;55.644;37.734;2023-04-24T16:22:58;99943.34;;;19.42;22.35
75409;BME280;63979;55.644;37.734;2023-04-24T16:28:00;99950.78;;;19.40;22.25
75409;BME280;63979;55.644;37.734;2023-04-24T16:33:01;99946.53;;;19.37;22.58
75409;BME280;63979;55.644;37.734;2023-04-24T16:38:07;99944.72;;;19.20;22.20
75409;BME280;63979;55.644;37.734;2023-04-24T16:43:08;99933.38;;;18.98;22.56
75409;BME280;63979;55.644;37.734;2023-04-24T16:48:09;99952.31;;;18.98;22.78
75409;BME280;63979;55.644;37.734;2023-04-24T16:53:11;99958.13;;;19.04;23.13
75409;BME280;63979;55.644;37.734;2023-04-24T16:58:12;99911.56;;;18.74;23.00
75409;BME280;63979;55.644;37.734;2023-04-24T17:03:13;99959.97;;;18.67;23.12
75409;BME280;63979;55.644;37.734;2023-04-24T17:08:14;99967.94;;;18.69;23.35
75409;BME280;63979;55.644;37.734;2023-04-24T17:13:15;99963.72;;;18.57;23.48
75409;BME280;63979;55.644;37.734;2023-04-24T17:18:16;99970.94;;;18.38;23.96
75409;BME280;63979;55.644;37.734;2023-04-24T17:23:19;99968.53;;;18.35;23.75
75409;BME280;63979;55.644;37.734;2023-04-24T17:28:28;99974.94;;;18.34;23.91
75409;BME280;63979;55.644;37.734;2023-04-24T17:33:30;99978.13;;;18.30;23.57
75409;BME280;63979;55.644;37.734;2023-04-24T17:38:31;99980.72;;;18.22;24.04
75409;BME280;63979;55.644;37.734;2023-04-24T17:43:32;99973.84;;;18.00;24.00
75409;BME280;63979;55.644;37.734;2023-04-24T17:48:34;99980.06;;;18.10;24.06
75409;BME280;63979;55.644;37.734;2023-04-24T17:53:35;99996.28;;;18.10;23.61
75409;BME280;63979;55.644;37.734;2023-04-24T17:58:36;99940.69;;;17.80;24.02
75409;BME280;63979;55.644;37.734;2023-04-24T18:03:37;99997.16;;;18.01;24.51
75409;BME280;63979;55.644;37.734;2023-04-24T18:08:38;99997.44;;;18.07;24.34
75409;BME280;63979;55.644;37.734;2023-04-24T18:13:39;99993.28;;;18.13;24.21
75409;BME280;63979;55.644;37.734;2023-04-24T18:18:43;99995.75;;;17.97;24.55
75409;BME280;63979;55.644;37.734;2023-04-24T18:23:43;99995.41;;;17.82;24.98
75409;BME280;63979;55.644;37.734;2023-04-24T18:28:46;99968.16;;;17.56;25.13
75409;BME280;63979;55.644;37.734;2023-04-24T18:33:47;100013.16;;;17.65;24.69
75409;BME280;63979;55.644;37.734;2023-04-24T18:38:48;100008.34;;;17.69;24.70
75409;BME280;63979;55.644;37.734;2023-04-24T18:43:49;100010.81;;;17.43;25.13
75409;BME280;63979;55.644;37.734;2023-04-24T18:48:51;100011.66;;;17.34;25.38
75409;BME280;63979;55.644;37.734;2023-04-24T18:53:52;99989.25;;;17.14;25.41
75409;BME280;63979;55.644;37.734;2023-04-24T18:58:53;100006.28;;;17.14;25.41
75409;BME280;63979;55.644;37.734;2023-04-24T19:03:54;100015.09;;;17.07;25.76
75409;BME280;63979;55.644;37.734;2023-04-24T19:08:58;100010.94;;;16.93;26.00
75409;BME280;63979;55.644;37.734;2023-04-24T19:13:59;100010.38;;;16.90;25.80
75409;BME280;63979;55.644;37.734;2023-04-24T19:19:03;100011.53;;;16.87;26.01
75409;BME280;63979;55.644;37.734;2023-04-24T19:24:05;100013.66;;;16.83;26.16
75409;BME280;63979;55.644;37.734;2023-04-24T19:29:07;100022.16;;;16.69;26.42
75409;BME280;63979;55.644;37.734;2023-04-24T19:34:07;99981.06;;;16.56;26.69
75409;BME280;63979;55.644;37.734;2023-04-24T19:39:08;99992.84;;;16.45;27.11
75409;BME280;63979;55.644;37.734;2023-04-24T19:44:09;100022.19;;;16.39;27.56
75409;BME280;63979;55.644;37.734;2023-04-24T19:49:10;100025.16;;;16.36;27.00
75409;BME280;63979;55.644;37.734;2023-04-24T19:54:12;99975.72;;;16.06;27.08
75409;BME280;63979;55.644;37.734;2023-04-24T19:59:14;99997.25;;;16.06;27.91
75409;BME280;63979;55.644;37.734;2023-04-24T20:04:14;100009.47;;;16.10;27.82
75409;BME280;63979;55.644;37.734;2023-04-24T20:09:16;100011.03;;;15.82;34.34
75409;BME280;63979;55.644;37.734;2023-04-24T20:14:16;100041.16;;;15.35;31.86
75409;BME280;63979;55.644;37.734;2023-04-24T20:19:17;100029.00;;;15.40;29.60
75409;BME280;63979;55.644;37.734;2023-04-24T20:24:18;100007.03;;;15.35;29.75
75409;BME280;63979;55.644;37.734;2023-04-24T20:29:19;99968.72;;;15.22;29.14
75409;BME280;63979;55.644;37.734;2023-04-24T20:34:21;99967.22;;;15.08;29.36
75409;BME280;63979;55.644;37.734;2023-04-24T20:39:22;100021.16;;;15.27;29.67
75409;BME280;63979;55.644;37.734;2023-04-24T20:44:22;100010.97;;;15.31;29.71
75409;BME280;63979;55.644;37.734;2023-04-24T20:49:23;99976.38;;;15.06;29.52
75409;BME280;63979;55.644;37.734;2023-04-24T20:54:24;100008.59;;;14.85;32.70
75409;BME280;63979;55.644;37.734;2023-04-24T20:59:26;100028.72;;;14.90;31.36
75409;BME280;63979;55.644;37.734;2023-04-24T21:04:28;100023.91;;;14.73;32.17
75409;BME280;63979;55.644;37.734;2023-04-24T21:09:33;100014.66;;;14.55;32.68
75409;BME280;63979;55.644;37.734;2023-04-24T21:14:34;100025.91;;;14.60;31.59
75409;BME280;63979;55.644;37.734;2023-04-24T21:19:35;100017.59;;;14.52;32.42
75409;BME280;63979;55.644;37.734;2023-04-24T21:24:36;100024.09;;;14.49;33.02
75409;BME280;63979;55.644;37.734;2023-04-24T21:29:37;100017.84;;;14.38;33.51
75409;BME280;63979;55.644;37.734;2023-04-24T21:34:38;100027.50;;;14.51;33.30
75409;BME280;63979;55.644;37.734;2023-04-24T21:39:39;100022.75;;;14.44;34.08
75409;BME280;63979;55.644;37.734;2023-04-24T21:44:39;100022.38;;;14.37;34.50
75409;BME280;63979;55.644;37.734;2023-04-24T21:49:41;100024.72;;;14.30;35.39
75409;BME280;63979;55.644;37.734;2023-04-24T21:54:42;100021.88;;;14.21;35.34
75409;BME280;63979;55.644;37.734;2023-04-24T21:59:43;100016.53;;;14.32;35.42
75409;BME280;63979;55.644;37.734;2023-04-24T22:04:45;100011.41;;;14.29;35.39
75409;BME280;63979;55.644;37.734;2023-04-24T22:09:46;99993.34;;;14.31;35.34
75409;BME280;63979;55.644;37.734;2023-04-24T22:14:47;100007.25;;;14.47;35.33
75409;BME280;63979;55.644;37.734;2023-04-24T22:19:48;99951.34;;;14.19;35.94
75409;BME280;63979;55.644;37.734;2023-04-24T22:24:49;100002.59;;;14.49;35.83
75409;BME280;63979;55.644;37.734;2023-04-24T22:29:50;99996.13;;;14.52;35.97
75409;BME280;63979;55.644;37.734;2023-04-24T22:34:51;100001.38;;;14.53;35.97
75409;BME280;63979;55.644;37.734;2023-04-24T22:39:52;100000.50;;;14.42;38.81
75409;BME280;63979;55.644;37.734;2023-04-24T22:44:53;99995.41;;;14.27;37.76
75409;BME280;63979;55.644;37.734;2023-04-24T22:49:54;100000.28;;;14.45;37.80
75409;BME280;63979;55.644;37.734;2023-04-24T22:54:57;99964.31;;;14.14;37.94
75409;BME280;63979;55.644;37.734;2023-04-24T22:59:58;100005.44;;;14.25;37.20
75409;BME280;63979;55.644;37.734;2023-04-24T23:04:58;99954.81;;;13.87;37.35
75409;BME280;63979;55.644;37.734;2023-04-24T23:10:00;100013.22;;;14.17;37.75
75409;BME280;63979;55.644;37.734;2023-04-24T23:15:00;100017.75;;;14.05;38.51
75409;BME280;63979;55.644;37.734;2023-04-24T23:20:06;100006.41;;;14.13;38.17
75409;BME280;63979;55.644;37.734;2023-04-24T23:25:07;100011.06;;;14.22;38.31
75409;BME280;63979;55.644;37.734;2023-04-24T23:30:09;100025.31;;;14.12;38.97
75409;BME280;63979;55.644;37.734;2023-04-24T23:35:10;100015.56;;;14.11;38.58
75409;BME280;63979;55.644;37.734;2023-04-24T23:40:11;100013.47;;;14.14;38.81
75409;BME280;63979;55.644;37.734;2023-04-24T23:45:12;99966.06;;;13.92;38.29
75409;BME280;63979;55.644;37.734;2023-04-24T23:50:14;99965.69;;;13.97;39.91
75409;BME280;63979;55.644;37.734;2023-04-24T23:55:15;99992.28;;;13.89;39.75
